sensor_id;sensor_type;location;lat;lon;timestamp;temperature;humidity
29539;DHT22;16482;51.046;4.498;2022-12-07T00:01:24;23.10;32.40
29539;DHT22;16482;51.046;4.498;2022-12-07T00:03:53;23.10;32.40
29539;DHT22;16482;51.046;4.498;2022-12-07T00:06:22;23.10;32.40
29539;DHT22;16482;51.046;4.498;2022-12-07T00:08:48;23.00;32.40
29539;DHT22;16482;51.046;4.498;2022-12-07T00:11:17;23.00;32.40
29539;DHT22;16482;51.046;4.498;2022-12-07T00:13:44;23.00;32.40
29539;DHT22;16482;51.046;4.498;2022-12-07T00:16:16;23.00;32.40
29539;DHT22;16482;51.046;4.498;2022-12-07T00:18:44;23.00;32.50
29539;DHT22;16482;51.046;4.498;2022-12-07T00:21:12;23.00;32.40
29539;DHT22;16482;51.046;4.498;2022-12-07T00:23:39;23.00;32.40
29539;DHT22;16482;51.046;4.498;2022-12-07T00:26:14;23.00;32.40
29539;DHT22;16482;51.046;4.498;2022-12-07T00:28:41;23.00;32.40
29539;DHT22;16482;51.046;4.498;2022-12-07T00:31:10;22.90;32.40
29539;DHT22;16482;51.046;4.498;2022-12-07T00:33:45;22.90;32.40
29539;DHT22;16482;51.046;4.498;2022-12-07T00:36:14;22.90;32.40
29539;DHT22;16482;51.046;4.498;2022-12-07T00:38:40;22.90;32.40
29539;DHT22;16482;51.046;4.498;2022-12-07T00:41:13;22.90;32.40
29539;DHT22;16482;51.046;4.498;2022-12-07T00:43:40;22.90;32.30
29539;DHT22;16482;51.046;4.498;2022-12-07T00:46:10;22.90;32.30
29539;DHT22;16482;51.046;4.498;2022-12-07T00:48:38;22.90;32.30
29539;DHT22;16482;51.046;4.498;2022-12-07T00:51:13;22.90;32.30
29539;DHT22;16482;51.046;4.498;2022-12-07T00:53:40;22.80;32.30
29539;DHT22;16482;51.046;4.498;2022-12-07T00:56:12;22.80;32.30
29539;DHT22;16482;51.046;4.498;2022-12-07T00:58:38;22.90;32.40
29539;DHT22;16482;51.046;4.498;2022-12-07T01:01:09;22.80;32.40
29539;DHT22;16482;51.046;4.498;2022-12-07T01:03:38;22.70;32.40
29539;DHT22;16482;51.046;4.498;2022-12-07T01:06:13;22.80;32.50
29539;DHT22;16482;51.046;4.498;2022-12-07T01:08:39;22.70;32.50
29539;DHT22;16482;51.046;4.498;2022-12-07T01:11:11;22.70;32.50
29539;DHT22;16482;51.046;4.498;2022-12-07T01:13:45;22.70;32.50
29539;DHT22;16482;51.046;4.498;2022-12-07T01:16:16;22.60;32.50
29539;DHT22;16482;51.046;4.498;2022-12-07T01:18:45;22.70;32.60
29539;DHT22;16482;51.046;4.498;2022-12-07T01:21:13;22.60;32.50
29539;DHT22;16482;51.046;4.498;2022-12-07T01:23:44;22.60;32.50
29539;DHT22;16482;51.046;4.498;2022-12-07T01:26:20;22.60;32.50
29539;DHT22;16482;51.046;4.498;2022-12-07T01:28:47;22.60;32.60
29539;DHT22;16482;51.046;4.498;2022-12-07T01:31:18;22.60;32.50
29539;DHT22;16482;51.046;4.498;2022-12-07T01:33:46;22.60;32.60
29539;DHT22;16482;51.046;4.498;2022-12-07T01:36:15;22.60;32.60
29539;DHT22;16482;51.046;4.498;2022-12-07T01:38:42;22.60;32.60
29539;DHT22;16482;51.046;4.498;2022-12-07T01:41:11;22.60;32.70
29539;DHT22;16482;51.046;4.498;2022-12-07T01:44:08;22.60;32.60
29539;DHT22;16482;51.046;4.498;2022-12-07T01:46:34;22.60;32.60
29539;DHT22;16482;51.046;4.498;2022-12-07T01:49:01;22.50;32.70
29539;DHT22;16482;51.046;4.498;2022-12-07T01:51:30;22.50;32.60
29539;DHT22;16482;51.046;4.498;2022-12-07T01:53:56;22.60;32.70
29539;DHT22;16482;51.046;4.498;2022-12-07T01:56:25;22.50;32.70
29539;DHT22;16482;51.046;4.498;2022-12-07T01:58:52;22.50;32.60
29539;DHT22;16482;51.046;4.498;2022-12-07T02:01:20;22.60;32.60
29539;DHT22;16482;51.046;4.498;2022-12-07T02:03:46;22.50;32.60
29539;DHT22;16482;51.046;4.498;2022-12-07T02:06:15;22.50;32.60
29539;DHT22;16482;51.046;4.498;2022-12-07T02:08:42;22.60;32.60
29539;DHT22;16482;51.046;4.498;2022-12-07T02:11:12;22.50;32.60
29539;DHT22;16482;51.046;4.498;2022-12-07T02:13:41;22.50;32.60
29539;DHT22;16482;51.046;4.498;2022-12-07T02:19:33;22.50;32.70
29539;DHT22;16482;51.046;4.498;2022-12-07T02:22:34;22.40;32.60
29539;DHT22;16482;51.046;4.498;2022-12-07T02:25:30;22.50;32.70
29539;DHT22;16482;51.046;4.498;2022-12-07T02:28:12;22.50;32.70
29539;DHT22;16482;51.046;4.498;2022-12-07T02:30:45;22.40;32.60
29539;DHT22;16482;51.046;4.498;2022-12-07T02:36:22;22.40;32.80
29539;DHT22;16482;51.046;4.498;2022-12-07T02:39:09;22.40;32.70
29539;DHT22;16482;51.046;4.498;2022-12-07T02:41:44;22.40;32.70
29539;DHT22;16482;51.046;4.498;2022-12-07T02:44:18;22.40;32.70
29539;DHT22;16482;51.046;4.498;2022-12-07T02:47:03;22.40;32.70
29539;DHT22;16482;51.046;4.498;2022-12-07T02:49:30;22.40;32.70
29539;DHT22;16482;51.046;4.498;2022-12-07T02:51:57;22.40;32.60
29539;DHT22;16482;51.046;4.498;2022-12-07T02:54:23;22.40;32.70
29539;DHT22;16482;51.046;4.498;2022-12-07T02:57:03;22.40;32.70
29539;DHT22;16482;51.046;4.498;2022-12-07T03:10:35;22.40;33.30
29539;DHT22;16482;51.046;4.498;2022-12-07T03:13:33;22.40;32.70
29539;DHT22;16482;51.046;4.498;2022-12-07T03:18:30;22.30;32.80
29539;DHT22;16482;51.046;4.498;2022-12-07T03:21:02;22.30;32.80
29539;DHT22;16482;51.046;4.498;2022-12-07T03:23:32;22.30;32.80
29539;DHT22;16482;51.046;4.498;2022-12-07T03:26:01;22.30;32.80
29539;DHT22;16482;51.046;4.498;2022-12-07T03:28:33;22.30;32.80
29539;DHT22;16482;51.046;4.498;2022-12-07T03:31:28;22.40;32.80
29539;DHT22;16482;51.046;4.498;2022-12-07T03:34:09;22.30;32.70
29539;DHT22;16482;51.046;4.498;2022-12-07T03:36:53;22.40;32.80
29539;DHT22;16482;51.046;4.498;2022-12-07T03:39:31;22.30;32.80
29539;DHT22;16482;51.046;4.498;2022-12-07T03:41:59;22.30;32.80
29539;DHT22;16482;51.046;4.498;2022-12-07T03:44:29;22.40;32.90
29539;DHT22;16482;51.046;4.498;2022-12-07T03:49:51;22.40;32.80
29539;DHT22;16482;51.046;4.498;2022-12-07T03:57:54;22.30;32.80
29539;DHT22;16482;51.046;4.498;2022-12-07T04:00:21;22.30;32.80
29539;DHT22;16482;51.046;4.498;2022-12-07T04:02:55;22.30;33.50
29539;DHT22;16482;51.046;4.498;2022-12-07T04:05:21;22.30;32.80
29539;DHT22;16482;51.046;4.498;2022-12-07T04:07:54;22.30;32.80
29539;DHT22;16482;51.046;4.498;2022-12-07T04:10:20;22.30;32.70
29539;DHT22;16482;51.046;4.498;2022-12-07T04:12:49;22.30;32.70
29539;DHT22;16482;51.046;4.498;2022-12-07T04:15:22;22.30;32.70
29539;DHT22;16482;51.046;4.498;2022-12-07T04:17:51;22.30;32.70
29539;DHT22;16482;51.046;4.498;2022-12-07T04:20:20;22.20;32.60
29539;DHT22;16482;51.046;4.498;2022-12-07T04:22:54;22.20;32.60
29539;DHT22;16482;51.046;4.498;2022-12-07T04:25:20;22.30;32.70
29539;DHT22;16482;51.046;4.498;2022-12-07T04:27:55;22.20;32.70
29539;DHT22;16482;51.046;4.498;2022-12-07T04:30:21;22.20;32.70
29539;DHT22;16482;51.046;4.498;2022-12-07T04:32:47;22.30;32.60
29539;DHT22;16482;51.046;4.498;2022-12-07T04:35:13;22.30;32.70
29539;DHT22;16482;51.046;4.498;2022-12-07T04:37:39;22.30;32.70
29539;DHT22;16482;51.046;4.498;2022-12-07T04:40:09;22.30;32.70
29539;DHT22;16482;51.046;4.498;2022-12-07T04:42:37;22.30;32.70
29539;DHT22;16482;51.046;4.498;2022-12-07T04:45:03;22.30;32.60
29539;DHT22;16482;51.046;4.498;2022-12-07T04:47:32;22.30;32.50
29539;DHT22;16482;51.046;4.498;2022-12-07T04:49:58;22.20;32.60
29539;DHT22;16482;51.046;4.498;2022-12-07T04:52:24;22.20;32.60
29539;DHT22;16482;51.046;4.498;2022-12-07T04:54:50;22.30;32.60
29539;DHT22;16482;51.046;4.498;2022-12-07T04:57:16;22.20;32.50
29539;DHT22;16482;51.046;4.498;2022-12-07T04:59:42;22.20;32.50
29539;DHT22;16482;51.046;4.498;2022-12-07T05:02:08;22.20;32.60
29539;DHT22;16482;51.046;4.498;2022-12-07T05:04:34;22.20;32.50
29539;DHT22;16482;51.046;4.498;2022-12-07T05:07:03;22.20;32.50
29539;DHT22;16482;51.046;4.498;2022-12-07T05:09:29;22.20;32.60
29539;DHT22;16482;51.046;4.498;2022-12-07T05:11:55;22.20;32.60
29539;DHT22;16482;51.046;4.498;2022-12-07T05:14:24;22.20;32.70
29539;DHT22;16482;51.046;4.498;2022-12-07T05:16:51;22.20;32.50
29539;DHT22;16482;51.046;4.498;2022-12-07T05:19:19;22.20;32.60
29539;DHT22;16482;51.046;4.498;2022-12-07T05:21:45;22.20;32.60
29539;DHT22;16482;51.046;4.498;2022-12-07T05:24:13;22.20;32.60
29539;DHT22;16482;51.046;4.498;2022-12-07T05:26:40;22.20;32.70
29539;DHT22;16482;51.046;4.498;2022-12-07T05:29:06;22.20;32.70
29539;DHT22;16482;51.046;4.498;2022-12-07T05:31:32;22.20;32.80
29539;DHT22;16482;51.046;4.498;2022-12-07T05:33:59;22.20;32.80
29539;DHT22;16482;51.046;4.498;2022-12-07T05:36:25;22.10;32.90
29539;DHT22;16482;51.046;4.498;2022-12-07T05:38:54;22.20;33.00
29539;DHT22;16482;51.046;4.498;2022-12-07T05:41:20;22.20;33.10
29539;DHT22;16482;51.046;4.498;2022-12-07T05:44:04;22.30;33.10
29539;DHT22;16482;51.046;4.498;2022-12-07T05:46:31;22.40;33.20
29539;DHT22;16482;51.046;4.498;2022-12-07T05:48:57;22.40;33.20
29539;DHT22;16482;51.046;4.498;2022-12-07T05:51:23;22.40;33.10
29539;DHT22;16482;51.046;4.498;2022-12-07T05:53:49;22.40;33.00
29539;DHT22;16482;51.046;4.498;2022-12-07T05:56:15;22.50;33.00
29539;DHT22;16482;51.046;4.498;2022-12-07T05:58:43;22.50;33.00
29539;DHT22;16482;51.046;4.498;2022-12-07T06:01:28;22.60;33.00
29539;DHT22;16482;51.046;4.498;2022-12-07T06:03:54;22.60;32.80
29539;DHT22;16482;51.046;4.498;2022-12-07T06:06:20;22.70;32.90
29539;DHT22;16482;51.046;4.498;2022-12-07T06:08:46;22.70;32.80
29539;DHT22;16482;51.046;4.498;2022-12-07T06:11:12;22.80;32.70
29539;DHT22;16482;51.046;4.498;2022-12-07T06:13:56;22.80;32.70
29539;DHT22;16482;51.046;4.498;2022-12-07T06:16:22;22.90;32.70
29539;DHT22;16482;51.046;4.498;2022-12-07T06:18:48;22.90;32.60
29539;DHT22;16482;51.046;4.498;2022-12-07T06:21:14;23.00;32.60
29539;DHT22;16482;51.046;4.498;2022-12-07T06:23:40;23.00;32.40
29539;DHT22;16482;51.046;4.498;2022-12-07T06:26:08;23.10;32.50
29539;DHT22;16482;51.046;4.498;2022-12-07T06:28:34;23.10;32.40
29539;DHT22;16482;51.046;4.498;2022-12-07T06:31:01;23.10;32.30
29539;DHT22;16482;51.046;4.498;2022-12-07T06:33:28;23.20;32.30
29539;DHT22;16482;51.046;4.498;2022-12-07T06:35:54;23.20;32.30
29539;DHT22;16482;51.046;4.498;2022-12-07T06:38:21;23.20;32.30
29539;DHT22;16482;51.046;4.498;2022-12-07T06:40:47;23.20;32.30
29539;DHT22;16482;51.046;4.498;2022-12-07T06:43:13;23.20;32.30
29539;DHT22;16482;51.046;4.498;2022-12-07T06:45:41;23.30;32.30
29539;DHT22;16482;51.046;4.498;2022-12-07T06:48:07;23.20;32.30
29539;DHT22;16482;51.046;4.498;2022-12-07T06:50:33;23.30;32.30
29539;DHT22;16482;51.046;4.498;2022-12-07T06:52:59;23.30;32.40
29539;DHT22;16482;51.046;4.498;2022-12-07T06:55:25;23.30;32.30
29539;DHT22;16482;51.046;4.498;2022-12-07T06:57:51;23.20;32.30
29539;DHT22;16482;51.046;4.498;2022-12-07T07:00:24;23.30;32.30
29539;DHT22;16482;51.046;4.498;2022-12-07T07:02:53;23.30;32.30
29539;DHT22;16482;51.046;4.498;2022-12-07T07:05:19;23.30;32.30
29539;DHT22;16482;51.046;4.498;2022-12-07T07:07:55;23.30;32.30
29539;DHT22;16482;51.046;4.498;2022-12-07T07:10:20;23.30;32.30
29539;DHT22;16482;51.046;4.498;2022-12-07T07:12:49;23.30;32.30
29539;DHT22;16482;51.046;4.498;2022-12-07T07:15:18;23.30;32.20
29539;DHT22;16482;51.046;4.498;2022-12-07T07:17:44;23.40;32.20
29539;DHT22;16482;51.046;4.498;2022-12-07T07:20:11;23.40;32.30
29539;DHT22;16482;51.046;4.498;2022-12-07T07:22:37;23.40;32.20
29539;DHT22;16482;51.046;4.498;2022-12-07T07:25:03;23.40;32.20
29539;DHT22;16482;51.046;4.498;2022-12-07T07:27:29;23.40;32.20
29539;DHT22;16482;51.046;4.498;2022-12-07T07:29:55;23.40;32.20
29539;DHT22;16482;51.046;4.498;2022-12-07T07:32:21;23.40;32.20
29539;DHT22;16482;51.046;4.498;2022-12-07T07:34:47;23.40;32.20
29539;DHT22;16482;51.046;4.498;2022-12-07T07:37:14;23.40;32.20
29539;DHT22;16482;51.046;4.498;2022-12-07T07:39:40;23.40;32.20
29539;DHT22;16482;51.046;4.498;2022-12-07T07:42:06;23.50;32.10
29539;DHT22;16482;51.046;4.498;2022-12-07T07:44:33;23.50;32.10
29539;DHT22;16482;51.046;4.498;2022-12-07T07:46:59;23.50;32.30
29539;DHT22;16482;51.046;4.498;2022-12-07T07:49:28;23.50;32.20
29539;DHT22;16482;51.046;4.498;2022-12-07T07:51:54;23.50;32.20
29539;DHT22;16482;51.046;4.498;2022-12-07T07:54:20;23.50;32.30
29539;DHT22;16482;51.046;4.498;2022-12-07T07:56:46;23.50;32.30
29539;DHT22;16482;51.046;4.498;2022-12-07T07:59:12;23.60;32.30
29539;DHT22;16482;51.046;4.498;2022-12-07T08:01:38;23.60;33.90
29539;DHT22;16482;51.046;4.498;2022-12-07T08:04:04;23.60;37.00
29539;DHT22;16482;51.046;4.498;2022-12-07T08:06:30;23.60;37.70
29539;DHT22;16482;51.046;4.498;2022-12-07T08:08:56;23.60;35.70
29539;DHT22;16482;51.046;4.498;2022-12-07T08:11:24;23.60;35.20
29539;DHT22;16482;51.046;4.498;2022-12-07T08:13:52;23.60;34.60
29539;DHT22;16482;51.046;4.498;2022-12-07T08:16:18;23.60;34.40
29539;DHT22;16482;51.046;4.498;2022-12-07T08:18:44;23.60;34.40
29539;DHT22;16482;51.046;4.498;2022-12-07T08:21:14;23.60;34.90
29539;DHT22;16482;51.046;4.498;2022-12-07T08:23:41;23.60;35.30
29539;DHT22;16482;51.046;4.498;2022-12-07T08:26:12;23.60;35.10
29539;DHT22;16482;51.046;4.498;2022-12-07T08:28:42;23.50;35.00
29539;DHT22;16482;51.046;4.498;2022-12-07T08:31:12;23.50;34.80
29539;DHT22;16482;51.046;4.498;2022-12-07T08:33:38;23.50;34.70
29539;DHT22;16482;51.046;4.498;2022-12-07T08:36:09;23.50;34.60
29539;DHT22;16482;51.046;4.498;2022-12-07T08:38:36;23.50;34.60
29539;DHT22;16482;51.046;4.498;2022-12-07T08:41:03;23.50;34.50
29539;DHT22;16482;51.046;4.498;2022-12-07T08:43:29;23.50;34.40
29539;DHT22;16482;51.046;4.498;2022-12-07T08:49:01;23.50;34.10
29539;DHT22;16482;51.046;4.498;2022-12-07T08:51:27;23.50;34.10
29539;DHT22;16482;51.046;4.498;2022-12-07T08:53:54;23.40;34.30
29539;DHT22;16482;51.046;4.498;2022-12-07T08:56:20;23.50;33.60
29539;DHT22;16482;51.046;4.498;2022-12-07T08:58:47;23.40;33.60
29539;DHT22;16482;51.046;4.498;2022-12-07T09:01:14;23.40;33.70
29539;DHT22;16482;51.046;4.498;2022-12-07T09:03:40;23.40;33.60
29539;DHT22;16482;51.046;4.498;2022-12-07T09:06:06;23.40;33.60
29539;DHT22;16482;51.046;4.498;2022-12-07T09:08:39;23.40;33.50
29539;DHT22;16482;51.046;4.498;2022-12-07T09:11:06;23.50;33.50
29539;DHT22;16482;51.046;4.498;2022-12-07T09:13:32;23.50;33.40
29539;DHT22;16482;51.046;4.498;2022-12-07T09:15:58;23.50;33.40
29539;DHT22;16482;51.046;4.498;2022-12-07T09:18:24;23.50;33.30
29539;DHT22;16482;51.046;4.498;2022-12-07T09:20:50;23.50;33.30
29539;DHT22;16482;51.046;4.498;2022-12-07T09:23:17;23.50;33.30
29539;DHT22;16482;51.046;4.498;2022-12-07T09:25:43;23.50;33.20
29539;DHT22;16482;51.046;4.498;2022-12-07T09:28:09;23.60;33.20
29539;DHT22;16482;51.046;4.498;2022-12-07T09:30:35;23.60;33.20
29539;DHT22;16482;51.046;4.498;2022-12-07T09:33:01;23.60;33.20
29539;DHT22;16482;51.046;4.498;2022-12-07T09:35:27;23.60;33.20
29539;DHT22;16482;51.046;4.498;2022-12-07T09:37:53;23.60;33.20
29539;DHT22;16482;51.046;4.498;2022-12-07T09:40:23;23.60;33.20
29539;DHT22;16482;51.046;4.498;2022-12-07T09:42:52;23.60;33.20
29539;DHT22;16482;51.046;4.498;2022-12-07T09:45:24;23.60;33.20
29539;DHT22;16482;51.046;4.498;2022-12-07T09:47:53;23.60;33.20
29539;DHT22;16482;51.046;4.498;2022-12-07T09:50:22;23.60;33.30
29539;DHT22;16482;51.046;4.498;2022-12-07T09:52:52;23.60;33.30
29539;DHT22;16482;51.046;4.498;2022-12-07T09:55:28;23.60;33.30
29539;DHT22;16482;51.046;4.498;2022-12-07T09:57:55;23.60;33.40
29539;DHT22;16482;51.046;4.498;2022-12-07T10:00:24;23.60;33.40
29539;DHT22;16482;51.046;4.498;2022-12-07T10:03:01;23.60;33.50
29539;DHT22;16482;51.046;4.498;2022-12-07T10:05:34;23.60;33.40
29539;DHT22;16482;51.046;4.498;2022-12-07T10:08:00;23.60;33.50
29539;DHT22;16482;51.046;4.498;2022-12-07T10:10:31;23.60;33.60
29539;DHT22;16482;51.046;4.498;2022-12-07T10:15:52;23.60;33.70
29539;DHT22;16482;51.046;4.498;2022-12-07T10:20:47;23.60;33.70
29539;DHT22;16482;51.046;4.498;2022-12-07T10:23:17;23.60;33.70
29539;DHT22;16482;51.046;4.498;2022-12-07T10:25:44;23.60;33.70
29539;DHT22;16482;51.046;4.498;2022-12-07T10:28:18;23.60;33.70
29539;DHT22;16482;51.046;4.498;2022-12-07T10:33:51;23.60;33.80
29539;DHT22;16482;51.046;4.498;2022-12-07T10:36:34;23.60;33.70
29539;DHT22;16482;51.046;4.498;2022-12-07T10:39:16;23.50;33.70
29539;DHT22;16482;51.046;4.498;2022-12-07T10:41:56;23.60;33.80
29539;DHT22;16482;51.046;4.498;2022-12-07T10:44:33;23.60;33.80
29539;DHT22;16482;51.046;4.498;2022-12-07T10:53:28;23.50;33.80
29539;DHT22;16482;51.046;4.498;2022-12-07T10:56:06;23.50;33.90
29539;DHT22;16482;51.046;4.498;2022-12-07T10:58:48;23.50;33.90
29539;DHT22;16482;51.046;4.498;2022-12-07T11:01:29;23.60;34.00
29539;DHT22;16482;51.046;4.498;2022-12-07T11:04:24;23.50;34.00
29539;DHT22;16482;51.046;4.498;2022-12-07T11:26:03;23.50;34.20
29539;DHT22;16482;51.046;4.498;2022-12-07T11:36:52;23.40;34.60
29539;DHT22;16482;51.046;4.498;2022-12-07T11:39:50;23.40;34.60
29539;DHT22;16482;51.046;4.498;2022-12-07T11:42:22;23.30;34.60
29539;DHT22;16482;51.046;4.498;2022-12-07T11:44:57;23.30;34.70
29539;DHT22;16482;51.046;4.498;2022-12-07T11:47:28;23.20;34.60
29539;DHT22;16482;51.046;4.498;2022-12-07T11:50:24;23.20;34.70
29539;DHT22;16482;51.046;4.498;2022-12-07T11:58:38;23.20;34.70
29539;DHT22;16482;51.046;4.498;2022-12-07T12:03:58;23.20;34.70
29539;DHT22;16482;51.046;4.498;2022-12-07T12:06:26;23.10;34.70
29539;DHT22;16482;51.046;4.498;2022-12-07T12:09:12;23.10;34.70
29539;DHT22;16482;51.046;4.498;2022-12-07T12:22:36;23.10;34.90
29539;DHT22;16482;51.046;4.498;2022-12-07T12:25:06;23.20;34.90
29539;DHT22;16482;51.046;4.498;2022-12-07T12:27:37;23.10;34.90
29539;DHT22;16482;51.046;4.498;2022-12-07T12:30:07;23.10;34.90
29539;DHT22;16482;51.046;4.498;2022-12-07T12:32:49;23.20;35.00
29539;DHT22;16482;51.046;4.498;2022-12-07T12:35:36;23.10;35.00
29539;DHT22;16482;51.046;4.498;2022-12-07T12:38:31;23.10;35.00
29539;DHT22;16482;51.046;4.498;2022-12-07T12:40:59;23.10;34.90
29539;DHT22;16482;51.046;4.498;2022-12-07T12:43:50;23.10;34.90
29539;DHT22;16482;51.046;4.498;2022-12-07T12:51:45;23.10;35.00
29539;DHT22;16482;51.046;4.498;2022-12-07T12:54:22;23.10;35.00
29539;DHT22;16482;51.046;4.498;2022-12-07T13:02:28;23.10;34.90
29539;DHT22;16482;51.046;4.498;2022-12-07T13:08:03;23.10;34.90
29539;DHT22;16482;51.046;4.498;2022-12-07T13:10:43;23.10;34.80
29539;DHT22;16482;51.046;4.498;2022-12-07T13:21:00;23.10;34.90
29539;DHT22;16482;51.046;4.498;2022-12-07T13:28:52;23.00;34.80
29539;DHT22;16482;51.046;4.498;2022-12-07T13:31:31;23.00;34.80
29539;DHT22;16482;51.046;4.498;2022-12-07T13:33:58;23.00;34.80
29539;DHT22;16482;51.046;4.498;2022-12-07T13:36:30;23.00;34.80
29539;DHT22;16482;51.046;4.498;2022-12-07T13:41:41;23.00;34.70
29539;DHT22;16482;51.046;4.498;2022-12-07T13:44:18;23.00;34.70
29539;DHT22;16482;51.046;4.498;2022-12-07T13:49:19;23.00;34.60
29539;DHT22;16482;51.046;4.498;2022-12-07T13:51:45;23.00;34.60
29539;DHT22;16482;51.046;4.498;2022-12-07T13:54:12;23.00;34.60
29539;DHT22;16482;51.046;4.498;2022-12-07T13:56:39;23.00;34.60
29539;DHT22;16482;51.046;4.498;2022-12-07T13:59:14;23.00;34.60
29539;DHT22;16482;51.046;4.498;2022-12-07T14:01:41;23.10;34.60
29539;DHT22;16482;51.046;4.498;2022-12-07T14:04:36;23.00;34.50
29539;DHT22;16482;51.046;4.498;2022-12-07T14:07:32;23.00;34.60
29539;DHT22;16482;51.046;4.498;2022-12-07T14:10:05;23.10;34.60
29539;DHT22;16482;51.046;4.498;2022-12-07T14:12:36;23.10;34.60
29539;DHT22;16482;51.046;4.498;2022-12-07T14:15:02;23.10;34.50
29539;DHT22;16482;51.046;4.498;2022-12-07T14:17:29;23.10;34.50
29539;DHT22;16482;51.046;4.498;2022-12-07T14:19:58;23.10;34.50
29539;DHT22;16482;51.046;4.498;2022-12-07T14:22:37;23.10;34.40
29539;DHT22;16482;51.046;4.498;2022-12-07T14:25:22;23.10;34.30
29539;DHT22;16482;51.046;4.498;2022-12-07T14:28:30;23.20;34.30
29539;DHT22;16482;51.046;4.498;2022-12-07T14:31:01;23.20;34.30
29539;DHT22;16482;51.046;4.498;2022-12-07T14:33:28;23.20;34.30
29539;DHT22;16482;51.046;4.498;2022-12-07T14:35:54;23.20;34.30
29539;DHT22;16482;51.046;4.498;2022-12-07T14:38:24;23.20;34.30
29539;DHT22;16482;51.046;4.498;2022-12-07T14:40:52;23.20;34.30
29539;DHT22;16482;51.046;4.498;2022-12-07T14:43:20;23.20;34.30
29539;DHT22;16482;51.046;4.498;2022-12-07T14:45:46;23.20;34.20
29539;DHT22;16482;51.046;4.498;2022-12-07T14:48:13;23.20;34.20
29539;DHT22;16482;51.046;4.498;2022-12-07T14:50:44;23.20;34.10
29539;DHT22;16482;51.046;4.498;2022-12-07T14:53:16;23.20;34.10
29539;DHT22;16482;51.046;4.498;2022-12-07T14:55:43;23.20;34.10
29539;DHT22;16482;51.046;4.498;2022-12-07T14:58:14;23.20;34.10
29539;DHT22;16482;51.046;4.498;2022-12-07T15:00:40;23.20;34.10
29539;DHT22;16482;51.046;4.498;2022-12-07T15:03:06;23.20;34.20
29539;DHT22;16482;51.046;4.498;2022-12-07T15:05:33;23.20;34.10
29539;DHT22;16482;51.046;4.498;2022-12-07T15:07:59;23.20;34.00
29539;DHT22;16482;51.046;4.498;2022-12-07T15:10:30;23.30;34.10
29539;DHT22;16482;51.046;4.498;2022-12-07T15:13:02;23.30;34.10
29539;DHT22;16482;51.046;4.498;2022-12-07T15:15:51;23.20;34.00
29539;DHT22;16482;51.046;4.498;2022-12-07T15:18:18;23.20;33.90
29539;DHT22;16482;51.046;4.498;2022-12-07T15:20:45;23.20;34.00
29539;DHT22;16482;51.046;4.498;2022-12-07T15:23:11;23.20;34.10
29539;DHT22;16482;51.046;4.498;2022-12-07T15:25:42;23.20;34.10
29539;DHT22;16482;51.046;4.498;2022-12-07T15:28:08;23.20;34.10
29539;DHT22;16482;51.046;4.498;2022-12-07T15:30:36;23.20;34.10
29539;DHT22;16482;51.046;4.498;2022-12-07T15:33:02;23.20;34.00
29539;DHT22;16482;51.046;4.498;2022-12-07T15:35:32;23.20;34.00
29539;DHT22;16482;51.046;4.498;2022-12-07T15:37:58;23.30;34.20
29539;DHT22;16482;51.046;4.498;2022-12-07T15:40:24;23.30;34.30
29539;DHT22;16482;51.046;4.498;2022-12-07T15:42:50;23.30;34.20
29539;DHT22;16482;51.046;4.498;2022-12-07T15:45:21;23.30;34.10
29539;DHT22;16482;51.046;4.498;2022-12-07T15:47:47;23.40;34.10
29539;DHT22;16482;51.046;4.498;2022-12-07T15:50:15;23.50;34.00
29539;DHT22;16482;51.046;4.498;2022-12-07T15:52:42;23.60;34.00
29539;DHT22;16482;51.046;4.498;2022-12-07T15:55:09;23.60;33.90
29539;DHT22;16482;51.046;4.498;2022-12-07T15:57:37;23.70;33.90
29539;DHT22;16482;51.046;4.498;2022-12-07T16:00:04;23.70;33.70
29539;DHT22;16482;51.046;4.498;2022-12-07T16:02:30;23.80;33.70
29539;DHT22;16482;51.046;4.498;2022-12-07T16:04:56;23.80;33.60
29539;DHT22;16482;51.046;4.498;2022-12-07T16:07:22;24.00;33.60
29539;DHT22;16482;51.046;4.498;2022-12-07T16:09:49;24.00;33.60
29539;DHT22;16482;51.046;4.498;2022-12-07T16:12:15;24.10;33.40
29539;DHT22;16482;51.046;4.498;2022-12-07T16:14:42;24.10;33.30
29539;DHT22;16482;51.046;4.498;2022-12-07T16:17:08;24.20;33.30
29539;DHT22;16482;51.046;4.498;2022-12-07T16:19:36;24.30;33.30
29539;DHT22;16482;51.046;4.498;2022-12-07T16:22:03;24.30;33.10
29539;DHT22;16482;51.046;4.498;2022-12-07T16:24:30;24.40;33.00
29539;DHT22;16482;51.046;4.498;2022-12-07T16:26:56;24.30;33.00
29539;DHT22;16482;51.046;4.498;2022-12-07T16:29:25;24.30;33.10
29539;DHT22;16482;51.046;4.498;2022-12-07T16:31:54;24.30;33.10
29539;DHT22;16482;51.046;4.498;2022-12-07T16:34:20;24.30;33.10
29539;DHT22;16482;51.046;4.498;2022-12-07T16:36:46;24.20;33.10
29539;DHT22;16482;51.046;4.498;2022-12-07T16:39:12;24.20;33.20
29539;DHT22;16482;51.046;4.498;2022-12-07T16:41:38;24.20;33.20
29539;DHT22;16482;51.046;4.498;2022-12-07T16:44:06;24.10;33.20
29539;DHT22;16482;51.046;4.498;2022-12-07T16:46:33;24.10;33.30
29539;DHT22;16482;51.046;4.498;2022-12-07T16:49:01;24.10;33.40
29539;DHT22;16482;51.046;4.498;2022-12-07T16:51:28;24.10;33.50
29539;DHT22;16482;51.046;4.498;2022-12-07T16:53:54;24.10;33.40
29539;DHT22;16482;51.046;4.498;2022-12-07T16:56:20;24.10;33.50
29539;DHT22;16482;51.046;4.498;2022-12-07T16:58:46;24.10;33.60
29539;DHT22;16482;51.046;4.498;2022-12-07T17:01:19;24.10;34.20
29539;DHT22;16482;51.046;4.498;2022-12-07T17:03:48;24.10;33.60
29539;DHT22;16482;51.046;4.498;2022-12-07T17:06:22;24.10;33.70
29539;DHT22;16482;51.046;4.498;2022-12-07T17:08:50;24.10;34.30
29539;DHT22;16482;51.046;4.498;2022-12-07T17:11:21;24.10;33.70
29539;DHT22;16482;51.046;4.498;2022-12-07T17:13:48;24.10;33.70
29539;DHT22;16482;51.046;4.498;2022-12-07T17:16:33;24.10;33.80
29539;DHT22;16482;51.046;4.498;2022-12-07T17:19:03;24.00;33.70
29539;DHT22;16482;51.046;4.498;2022-12-07T17:21:30;24.10;33.80
29539;DHT22;16482;51.046;4.498;2022-12-07T17:23:59;24.00;33.70
29539;DHT22;16482;51.046;4.498;2022-12-07T17:26:27;24.00;33.60
29539;DHT22;16482;51.046;4.498;2022-12-07T17:28:54;24.10;33.70
29539;DHT22;16482;51.046;4.498;2022-12-07T17:31:21;24.10;33.70
29539;DHT22;16482;51.046;4.498;2022-12-07T17:33:48;24.10;33.60
29539;DHT22;16482;51.046;4.498;2022-12-07T17:36:18;24.10;33.60
29539;DHT22;16482;51.046;4.498;2022-12-07T17:38:45;24.10;33.50
29539;DHT22;16482;51.046;4.498;2022-12-07T17:41:15;24.00;33.40
29539;DHT22;16482;51.046;4.498;2022-12-07T17:44:08;24.10;33.40
29539;DHT22;16482;51.046;4.498;2022-12-07T17:46:35;24.10;33.40
29539;DHT22;16482;51.046;4.498;2022-12-07T17:49:02;24.10;33.30
29539;DHT22;16482;51.046;4.498;2022-12-07T17:51:29;24.10;33.40
29539;DHT22;16482;51.046;4.498;2022-12-07T17:54:13;24.10;33.30